Time;durP1;ratioP1;P1;durP2;ratioP2;P2;SDS_P1;SDS_P2;PMS_P1;PMS_P2;Temp;Humidity;BMP_temperature;BMP_pressure;BME280_temperature;BME280_humidity;BME280_pressure;Samples;Min_cycle;Max_cycle;Signal;HPM_P1;HPM_P2
2022/03/21 00:01:19;;;;;;;34.17;19.00;;;11.80;16.30;;;;;;5016841;28;20591;-68
2022/03/21 00:03:45;;;;;;;35.70;19.97;;;12.00;16.10;;;;;;5023322;28;20200;-68
2022/03/21 00:06:11;;;;;;;35.00;19.57;;;11.90;17.00;;;;;;5030001;28;20474;-68
2022/03/21 00:08:36;;;;;;;35.77;19.10;;;11.70;16.60;;;;;;5019688;28;20860;-68
2022/03/21 00:11:02;;;;;;;36.40;17.83;;;11.20;16.70;;;;;;5028864;28;20195;-68
2022/03/21 00:13:28;;;;;;;39.97;20.17;;;11.30;17.10;;;;;;5032376;28;20255;-68
2022/03/21 00:15:55;;;;;;;33.97;19.90;;;11.30;17.20;;;;;;5032141;28;20427;-68
2022/03/21 00:18:22;;;;;;;35.27;19.67;;;11.00;17.60;;;;;;5032556;28;20491;-67
2022/03/21 00:20:50;;;;;;;31.53;18.87;;;10.90;17.60;;;;;;5032103;28;20891;-68
2022/03/21 00:23:17;;;;;;;34.10;19.67;;;11.10;17.10;;;;;;5014044;28;20498;-68
2022/03/21 00:25:43;;;;;;;34.10;18.87;;;11.30;17.00;;;;;;5022312;28;20834;-68
2022/03/21 00:28:10;;;;;;;35.27;19.27;;;11.40;16.80;;;;;;5032189;28;20411;-68
2022/03/21 00:30:37;;;;;;;34.83;18.90;;;11.60;16.20;;;;;;5032635;28;20697;-67
2022/03/21 00:33:04;;;;;;;35.50;20.23;;;11.50;16.60;;;;;;5032643;28;20501;-68
2022/03/21 00:35:30;;;;;;;43.17;18.20;;;11.50;16.50;;;;;;5031182;28;20425;-68
2022/03/21 00:37:56;;;;;;;31.70;18.00;;;11.10;16.60;;;;;;5032890;28;21023;-68
2022/03/21 00:40:24;;;;;;;35.50;19.07;;;11.20;17.20;;;;;;5032967;28;20959;-68
2022/03/21 00:42:50;;;;;;;36.30;18.60;;;11.10;17.30;;;;;;5033050;28;20438;-68
2022/03/21 00:45:18;;;;;;;35.93;18.30;;;10.50;17.30;;;;;;5032689;28;20444;-67
2022/03/21 00:47:45;;;;;;;34.70;18.48;;;10.20;18.10;;;;;;5031631;28;20423;-67
2022/03/21 00:50:13;;;;;;;31.70;18.48;;;10.30;18.00;;;;;;5031293;28;20188;-68
2022/03/21 00:52:44;;;;;;;34.83;18.90;;;10.50;17.60;;;;;;5031494;28;20215;-68
2022/03/21 00:55:11;;;;;;;38.57;19.07;;;10.50;17.90;;;;;;5032688;28;20415;-68
2022/03/21 00:57:40;;;;;;;38.77;19.40;;;10.70;18.30;;;;;;5030790;28;20510;-68
2022/03/21 01:00:08;;;;;;;32.10;17.87;;;10.60;18.00;;;;;;5031900;28;20426;-68
2022/03/21 01:02:35;;;;;;;34.83;19.20;;;10.60;17.70;;;;;;5031365;28;20435;-68
2022/03/21 01:05:01;;;;;;;37.10;22.13;;;10.50;18.20;;;;;;5031684;28;20450;-68
2022/03/21 01:07:26;;;;;;;36.60;19.70;;;10.60;18.20;;;;;;5029649;28;20419;-68
2022/03/21 01:09:52;;;;;;;40.73;18.33;;;10.90;17.50;;;;;;5031728;28;20165;-68
2022/03/21 01:12:18;;;;;;;41.67;19.30;;;11.20;16.90;;;;;;5031766;28;20626;-68
2022/03/21 01:14:43;;;;;;;30.80;18.90;;;11.50;16.70;;;;;;5031838;28;20656;-68
2022/03/21 01:17:09;;;;;;;34.53;19.53;;;11.20;16.90;;;;;;5031146;28;20666;-68
2022/03/21 01:19:35;;;;;;;31.53;18.40;;;11.00;17.50;;;;;;5015437;28;20779;-68
2022/03/21 01:22:00;;;;;;;33.80;19.53;;;10.90;17.30;;;;;;5011956;28;20200;-68
2022/03/21 01:24:26;;;;;;;34.50;18.63;;;11.00;17.30;;;;;;5011842;28;20184;-68
2022/03/21 01:26:52;;;;;;;33.80;18.90;;;11.30;16.60;;;;;;5011503;28;20250;-68
2022/03/21 01:29:17;;;;;;;31.73;17.60;;;11.80;16.20;;;;;;5012842;28;20614;-68
2022/03/21 01:31:43;;;;;;;32.43;18.90;;;12.10;16.10;;;;;;5011429;28;20432;-68
2022/03/21 01:34:09;;;;;;;35.30;19.27;;;12.30;16.10;;;;;;5011411;28;20177;-68
2022/03/21 01:36:34;;;;;;;33.13;17.27;;;12.20;16.10;;;;;;5011767;28;20246;-67
2022/03/21 01:39:00;;;;;;;33.00;19.30;;;12.00;16.60;;;;;;5012125;28;20204;-68
2022/03/21 01:41:26;;;;;;;35.57;18.93;;;11.80;16.90;;;;;;5011811;28;20597;-68
2022/03/21 01:44:02;;;;;;;36.37;19.90;;;12.00;15.90;;;;;;5011627;28;20412;-68
2022/03/21 01:46:28;;;;;;;42.80;20.50;;;12.10;15.80;;;;;;5019642;28;20196;-68
2022/03/21 01:48:56;;;;;;;32.43;18.77;;;12.00;17.10;;;;;;5029240;28;20422;-68
2022/03/21 01:51:22;;;;;;;35.08;18.23;;;11.50;18.40;;;;;;5031458;28;20468;-68
2022/03/21 01:56:33;;;;;;;36.65;18.25;;;11.70;16.80;;;;;;5031296;28;20549;-68
2022/03/21 01:59:00;;;;;;;33.10;18.60;;;11.60;17.50;;;;;;5029363;28;20199;-68
2022/03/21 02:01:25;;;;;;;33.10;17.70;;;11.70;16.60;;;;;;5031141;28;20189;-68
2022/03/21 02:03:51;;;;;;;35.77;18.40;;;11.60;16.70;;;;;;5031053;28;20177;-68
2022/03/21 02:06:17;;;;;;;43.13;19.23;;;11.50;17.00;;;;;;5031421;28;20681;-68
2022/03/21 02:08:44;;;;;;;32.40;18.40;;;11.50;17.80;;;;;;5026771;28;20463;-68
2022/03/21 02:11:10;;;;;;;31.48;18.05;;;11.10;20.10;;;;;;5022492;28;20784;-68
2022/03/21 02:13:36;;;;;;;35.90;18.92;;;10.90;20.20;;;;;;5018315;28;20248;-68
2022/03/21 02:16:03;;;;;;;34.50;20.35;;;11.00;18.50;;;;;;5017502;28;20191;-68
2022/03/21 02:18:29;;;;;;;37.53;19.17;;;11.30;18.10;;;;;;5030690;28;20271;-68
2022/03/21 02:20:58;;;;;;;36.50;18.60;;;11.30;18.00;;;;;;5021578;28;20263;-68
2022/03/21 02:23:59;;;;;;;33.05;18.60;;;11.20;18.80;;;;;;5010996;28;20439;-68
2022/03/21 02:26:25;;;;;;;33.72;18.38;;;10.80;19.40;;;;;;5011512;28;20651;-68
2022/03/21 02:28:52;;;;;;;32.55;18.55;;;10.40;20.00;;;;;;5009846;28;20202;-67
2022/03/21 02:31:19;;;;;;;34.95;19.05;;;10.20;19.80;;;;;;5022918;28;20178;-67
2022/03/21 02:33:46;;;;;;;35.28;18.75;;;9.60;21.30;;;;;;5030639;28;20200;-67
2022/03/21 02:36:15;;;;;;;32.83;18.38;;;9.70;21.80;;;;;;5030827;28;20211;-67
2022/03/21 02:38:42;;;;;;;35.35;18.73;;;10.20;20.40;;;;;;5030680;28;20555;-67
2022/03/21 02:41:08;;;;;;;35.78;18.77;;;10.20;21.20;;;;;;5025392;28;20176;-67
2022/03/21 02:43:52;;;;;;;35.33;18.83;;;10.00;21.10;;;;;;5009995;28;20251;-67
2022/03/21 02:46:18;;;;;;;37.75;19.65;;;10.10;21.10;;;;;;5011610;28;20197;-67
2022/03/21 02:48:52;;;;;;;33.40;20.00;;;9.70;22.50;;;;;;5013495;28;20527;-67
2022/03/21 02:51:21;;;;;;;35.08;19.73;;;9.30;23.70;;;;;;5015576;28;20165;-67
2022/03/21 02:53:50;;;;;;;34.88;19.23;;;9.20;23.50;;;;;;5014339;28;20185;-67
2022/03/21 02:56:17;;;;;;;37.80;21.08;;;9.10;23.30;;;;;;5014438;28;20174;-67
2022/03/21 02:58:43;;;;;;;36.65;19.90;;;9.10;24.00;;;;;;5014174;28;20646;-67
2022/03/21 03:01:14;;;;;;;39.47;20.40;;;8.90;24.10;;;;;;5014480;28;20194;-67
2022/03/21 03:03:40;;;;;;;36.20;21.08;;;8.40;25.70;;;;;;5015376;28;20209;-67
2022/03/21 03:06:06;;;;;;;46.42;22.60;;;8.70;25.30;;;;;;5014324;28;20228;-67
2022/03/21 03:08:33;;;;;;;35.10;20.23;;;9.10;25.70;;;;;;5014588;28;20166;-67
2022/03/21 03:10:59;;;;;;;36.58;21.05;;;9.50;24.50;;;;;;5034077;28;20188;-67
2022/03/21 03:13:24;;;;;;;44.40;21.90;;;9.50;24.00;;;;;;5032228;28;20197;-67
2022/03/21 03:15:50;;;;;;;37.73;20.27;;;9.60;23.40;;;;;;5033892;28;20410;-67
2022/03/21 03:18:16;;;;;;;39.80;21.87;;;9.60;23.70;;;;;;5033699;28;20857;-67
2022/03/21 03:20:55;;;;;;;36.10;20.20;;;9.60;23.30;;;;;;5033340;28;20314;-67
2022/03/21 03:23:22;;;;;;;34.92;20.75;;;9.80;23.00;;;;;;5032174;28;20192;-67
2022/03/21 03:25:54;;;;;;;38.13;19.95;;;9.70;23.30;;;;;;5024425;28;20200;-67
2022/03/21 03:28:19;;;;;;;36.95;21.65;;;9.80;23.00;;;;;;5013742;28;20209;-67
2022/03/21 03:30:45;;;;;;;38.57;20.40;;;9.40;24.00;;;;;;5013670;28;20261;-67
2022/03/21 03:33:11;;;;;;;39.90;21.47;;;9.60;24.00;;;;;;5013843;28;20555;-67
2022/03/21 03:35:37;;;;;;;44.30;22.40;;;9.50;23.70;;;;;;5014796;28;20294;-67
2022/03/21 03:38:03;;;;;;;44.30;20.77;;;9.30;25.70;;;;;;5013395;28;20174;-67
2022/03/21 03:40:29;;;;;;;38.83;20.48;;;9.30;24.60;;;;;;5013837;28;20184;-67
2022/03/21 03:42:55;;;;;;;38.07;21.40;;;9.50;23.80;;;;;;5013350;28;20197;-67
2022/03/21 03:45:21;;;;;;;37.97;20.55;;;9.10;25.60;;;;;;5014662;28;20460;-67
2022/03/21 03:47:46;;;;;;;35.57;19.50;;;9.10;24.90;;;;;;5013268;28;20174;-67
2022/03/21 03:50:12;;;;;;;38.60;20.97;;;9.20;24.30;;;;;;5013469;28;20169;-67
2022/03/21 03:52:40;;;;;;;34.88;19.85;;;9.00;25.40;;;;;;5013212;28;20206;-67
2022/03/21 03:55:06;;;;;;;38.88;20.45;;;8.90;25.10;;;;;;5014759;28;20527;-67
2022/03/21 03:57:32;;;;;;;38.80;22.00;;;8.90;25.40;;;;;;5011982;28;20182;-67
2022/03/21 03:59:58;;;;;;;35.27;19.73;;;9.00;24.80;;;;;;5013327;28;20228;-67
2022/03/21 04:02:23;;;;;;;45.10;20.73;;;9.20;24.20;;;;;;5020063;28;20205;-68
2022/03/21 04:04:49;;;;;;;33.93;19.40;;;9.10;24.70;;;;;;5032645;28;20185;-68
2022/03/21 04:07:15;;;;;;;35.23;19.57;;;9.20;24.20;;;;;;5031249;28;20203;-68
2022/03/21 04:09:40;;;;;;;42.57;22.20;;;9.20;23.90;;;;;;5032830;28;20248;-67
2022/03/21 04:12:06;;;;;;;36.97;20.80;;;8.90;25.10;;;;;;5032828;28;20284;-67
2022/03/21 04:14:32;;;;;;;37.53;19.97;;;8.90;25.20;;;;;;5032785;28;20169;-67
2022/03/21 04:16:58;;;;;;;42.07;21.17;;;8.60;25.90;;;;;;5030832;28;20445;-67
2022/03/21 04:19:23;;;;;;;39.80;22.07;;;8.50;25.60;;;;;;5032758;28;20419;-68
2022/03/21 04:21:49;;;;;;;40.90;21.20;;;8.60;26.10;;;;;;5032287;28;20211;-67
2022/03/21 04:24:15;;;;;;;39.93;21.60;;;8.60;26.20;;;;;;5032815;28;20187;-67
2022/03/21 04:26:40;;;;;;;40.90;20.80;;;8.70;26.60;;;;;;5032192;28;20960;-68
2022/03/21 04:29:06;;;;;;;35.50;20.63;;;8.90;25.40;;;;;;5013920;28;20173;-67
2022/03/21 04:31:33;;;;;;;40.40;21.17;;;8.80;25.40;;;;;;5011592;28;20184;-67
2022/03/21 04:33:58;;;;;;;40.08;20.67;;;8.60;26.10;;;;;;5012296;28;20726;-67
2022/03/21 04:36:25;;;;;;;36.30;19.80;;;8.70;25.30;;;;;;5012761;28;20257;-67
2022/03/21 04:38:50;;;;;;;39.20;20.38;;;8.70;26.00;;;;;;5013457;28;20186;-67
2022/03/21 04:41:16;;;;;;;36.50;20.13;;;8.70;25.30;;;;;;5012763;28;20560;-67
2022/03/21 04:43:42;;;;;;;34.37;20.10;;;8.60;24.90;;;;;;5012486;28;20432;-67
2022/03/21 04:46:09;;;;;;;33.85;20.20;;;8.70;25.50;;;;;;5024292;28;20196;-67
2022/03/21 04:48:34;;;;;;;35.63;19.90;;;8.40;26.10;;;;;;5030069;28;20263;-67
2022/03/21 04:51:00;;;;;;;35.50;19.57;;;8.40;26.10;;;;;;5032242;28;20256;-67
2022/03/21 04:53:26;;;;;;;35.90;19.50;;;8.40;25.10;;;;;;5032015;28;20262;-67
2022/03/21 04:55:51;;;;;;;36.47;20.20;;;8.20;25.10;;;;;;5022933;28;20236;-67
2022/03/21 04:58:17;;;;;;;45.33;19.00;;;8.30;25.70;;;;;;5012100;28;20173;-67
2022/03/21 05:00:46;;;;;;;36.40;19.70;;;8.40;24.60;;;;;;5013318;28;20268;-67
2022/03/21 05:03:12;;;;;;;34.03;19.38;;;8.40;25.30;;;;;;5011903;28;20259;-67
2022/03/21 05:05:38;;;;;;;32.47;18.00;;;8.60;24.90;;;;;;5012042;28;20593;-67
2022/03/21 05:08:04;;;;;;;32.63;18.43;;;8.80;23.50;;;;;;5011754;28;20165;-67
2022/03/21 05:10:31;;;;;;;39.00;19.25;;;8.70;24.80;;;;;;5013173;28;20181;-66
2022/03/21 05:12:57;;;;;;;32.10;18.77;;;8.50;24.20;;;;;;5011976;28;20193;-66
2022/03/21 05:15:24;;;;;;;35.75;20.00;;;8.50;24.20;;;;;;5011929;28;20181;-66
2022/03/21 05:17:52;;;;;;;34.35;18.73;;;8.60;23.80;;;;;;5011552;28;20204;-66
2022/03/21 05:20:18;;;;;;;35.47;17.83;;;8.50;22.90;;;;;;5013184;28;20226;-66
2022/03/21 05:30:57;;;;;;;32.00;18.20;;;8.50;23.70;;;;;;5011713;28;20201;-66
2022/03/21 05:31:06;;;;;;;35.72;18.77;;;8.40;23.30;;;;;;5012944;28;20820;-66
2022/03/21 05:36:17;;;;;;;35.83;19.20;;;8.60;22.10;;;;;;5011634;28;20171;-67
2022/03/21 05:38:44;;;;;;;34.60;18.70;;;8.40;21.70;;;;;;5011458;28;20670;-67
2022/03/21 05:41:10;;;;;;;43.15;22.75;;;8.50;22.40;;;;;;5011954;28;20192;-66
2022/03/21 05:43:36;;;;;;;40.08;21.33;;;8.00;24.50;;;;;;5025475;28;20224;-67
2022/03/21 05:46:03;;;;;;;46.70;21.73;;;7.50;26.20;;;;;;5049942;22;20224;-72
2022/03/21 05:48:52;;;;;;;38.17;21.45;;;6.80;28.20;;;;;;5016100;28;20420;-72
2022/03/21 05:51:27;;;;;;;47.38;24.13;;;6.80;28.80;;;;;;5012628;28;20165;-72
2022/03/21 05:53:52;;;;;;;41.20;22.77;;;6.50;29.40;;;;;;5025142;28;20238;-72
2022/03/21 05:56:19;;;;;;;45.27;22.50;;;6.90;29.70;;;;;;5030786;28;20200;-72
2022/03/21 05:58:45;;;;;;;50.97;22.75;;;6.70;29.40;;;;;;5030965;28;20169;-72
2022/03/21 06:01:18;;;;;;;46.88;23.83;;;7.10;28.20;;;;;;5015577;28;20188;-72
2022/03/21 06:03:44;;;;;;;44.83;23.67;;;7.40;28.00;;;;;;5012547;28;20173;-72
2022/03/21 06:06:10;;;;;;;49.77;24.13;;;7.60;28.00;;;;;;5009614;28;20751;-72
2022/03/21 06:08:36;;;;;;;39.37;22.80;;;7.70;27.50;;;;;;5011037;28;20516;-72
2022/03/21 06:11:04;;;;;;;46.13;23.57;;;7.90;27.30;;;;;;5011131;28;20409;-72
2022/03/21 06:13:32;;;;;;;59.85;23.63;;;8.00;27.00;;;;;;5012228;28;20424;-72
2022/03/21 06:16:01;;;;;;;49.00;24.08;;;8.00;26.70;;;;;;5011722;28;20550;-72
2022/03/21 06:18:27;;;;;;;50.28;25.50;;;8.10;26.70;;;;;;5011032;28;20251;-72
2022/03/21 06:20:53;;;;;;;53.60;25.27;;;8.10;26.90;;;;;;5011719;28;20180;-72
2022/03/21 06:23:18;;;;;;;51.43;24.57;;;8.00;27.20;;;;;;5014394;28;20551;-73
2022/03/21 06:25:44;;;;;;;44.93;23.93;;;7.30;28.10;;;;;;5029323;28;20479;-74
2022/03/21 06:28:10;;;;;;;52.23;24.30;;;7.60;28.40;;;;;;5026787;28;20185;-73
2022/03/21 06:30:37;;;;;;;51.87;25.00;;;7.30;28.10;;;;;;5033103;28;20420;-73
2022/03/21 06:33:02;;;;;;;63.85;27.00;;;7.00;30.20;;;;;;5032995;28;20256;-72
2022/03/21 06:35:28;;;;;;;57.50;28.60;;;6.80;30.60;;;;;;5031385;28;20284;-72
2022/03/21 06:37:54;;;;;;;54.63;26.87;;;6.90;31.40;;;;;;5033135;28;20660;-73
2022/03/21 06:40:20;;;;;;;61.80;25.77;;;7.00;29.90;;;;;;5033833;28;20177;-73
2022/03/21 06:42:46;;;;;;;43.30;25.13;;;6.90;29.40;;;;;;5034587;28;20442;-71
2022/03/21 06:45:12;;;;;;;66.20;25.65;;;6.90;30.30;;;;;;5029790;28;20467;-72
2022/03/21 06:47:37;;;;;;;56.77;24.50;;;6.60;29.70;;;;;;5034056;28;20660;-72
2022/03/21 06:50:05;;;;;;;46.60;25.07;;;6.10;30.80;;;;;;5033729;28;20260;-72
2022/03/21 06:52:30;;;;;;;65.10;26.33;;;6.10;32.10;;;;;;5033095;28;20160;-72
2022/03/21 06:54:56;;;;;;;51.57;26.43;;;5.90;32.80;;;;;;5015269;28;20693;-73
2022/03/21 06:57:22;;;;;;;58.23;26.50;;;5.90;33.40;;;;;;5018674;28;20191;-72
2022/03/21 06:59:47;;;;;;;53.23;26.00;;;6.40;32.60;;;;;;5034022;28;20632;-72
2022/03/21 07:02:15;;;;;;;50.03;26.77;;;6.10;32.80;;;;;;5033713;28;20646;-73
2022/03/21 07:04:41;;;;;;;69.85;26.83;;;6.30;33.10;;;;;;5033922;28;20173;-72
2022/03/21 07:07:07;;;;;;;58.30;26.83;;;7.10;31.90;;;;;;5033777;28;20302;-73
2022/03/21 07:09:32;;;;;;;52.23;26.43;;;7.20;30.90;;;;;;5031943;28;20583;-73
2022/03/21 07:11:58;;;;;;;46.20;26.13;;;7.00;30.60;;;;;;5033752;28;20180;-72
2022/03/21 07:14:24;;;;;;;60.63;28.00;;;7.30;31.00;;;;;;5033428;28;20181;-72
2022/03/21 07:16:50;;;;;;;53.00;26.33;;;8.00;30.20;;;;;;5033415;28;20196;-72
2022/03/21 07:19:15;;;;;;;57.83;27.70;;;8.20;29.30;;;;;;5031703;28;20213;-73
2022/03/21 07:21:41;;;;;;;51.37;27.27;;;8.20;29.00;;;;;;5033456;28;20461;-73
2022/03/21 07:24:07;;;;;;;53.20;27.52;;;7.60;29.60;;;;;;5033613;28;20204;-73
2022/03/21 07:26:34;;;;;;;51.50;28.23;;;7.80;29.50;;;;;;5026705;28;20208;-73
2022/03/21 07:29:00;;;;;;;55.58;28.10;;;8.30;28.80;;;;;;5014529;28;20259;-73
2022/03/21 07:31:25;;;;;;;52.78;28.73;;;8.30;28.60;;;;;;5001864;28;20236;-73
2022/03/21 07:33:51;;;;;;;52.37;28.40;;;8.30;29.00;;;;;;5013445;28;20174;-72
2022/03/21 07:36:17;;;;;;;54.43;29.20;;;8.50;28.30;;;;;;5013581;28;20197;-72
2022/03/21 07:38:42;;;;;;;55.03;28.03;;;8.30;28.80;;;;;;5013384;28;20408;-72
2022/03/21 07:41:08;;;;;;;51.47;28.17;;;8.30;28.80;;;;;;5014458;28;20181;-72
2022/03/21 07:43:37;;;;;;;53.83;29.33;;;8.20;28.80;;;;;;5013240;28;20184;-73
2022/03/21 07:48:52;;;;;;;56.17;27.98;;;7.90;30.00;;;;;;5033099;28;20187;-72
2022/03/21 07:51:18;;;;;;;54.90;27.67;;;8.20;29.50;;;;;;5031377;28;20182;-73
2022/03/21 07:53:44;;;;;;;53.83;29.25;;;9.00;28.50;;;;;;5033118;28;20224;-73
2022/03/21 07:56:10;;;;;;;57.43;26.30;;;9.20;27.30;;;;;;5032736;28;20197;-72
2022/03/21 07:58:36;;;;;;;54.13;28.17;;;8.50;28.40;;;;;;5032631;28;20180;-72
2022/03/21 08:01:03;;;;;;;48.97;28.25;;;8.40;29.20;;;;;;5031137;28;20192;-72
2022/03/21 08:03:29;;;;;;;52.63;29.05;;;8.90;28.50;;;;;;5033051;28;20180;-73
2022/03/21 08:05:58;;;;;;;54.70;28.03;;;9.40;27.30;;;;;;5018048;28;20220;-73
2022/03/21 08:08:23;;;;;;;52.17;27.98;;;10.00;26.00;;;;;;5012804;28;20175;-72
2022/03/21 08:10:49;;;;;;;49.63;28.40;;;10.30;24.60;;;;;;5012970;28;20271;-73
2022/03/21 08:13:17;;;;;;;56.73;27.67;;;10.20;25.60;;;;;;5012929;28;20247;-72
2022/03/21 08:15:47;;;;;;;49.20;28.17;;;10.30;24.70;;;;;;5013488;28;20197;-72
2022/03/21 08:18:13;;;;;;;50.33;27.52;;;10.50;25.30;;;;;;5016955;28;20188;-73
2022/03/21 08:20:40;;;;;;;51.07;25.37;;;11.00;24.30;;;;;;5032097;28;20195;-72
2022/03/21 08:23:11;;;;;;;41.88;25.25;;;10.90;23.40;;;;;;5032533;28;20431;-72
2022/03/21 08:25:43;;;;;;;49.97;25.00;;;10.50;24.20;;;;;;5030590;28;20220;-73
2022/03/21 08:28:11;;;;;;;44.30;26.55;;;10.20;24.20;;;;;;5030386;28;20419;-72
2022/03/21 08:30:37;;;;;;;43.30;25.63;;;10.30;24.50;;;;;;5031737;28;20563;-72
2022/03/21 08:33:06;;;;;;;53.65;26.45;;;9.80;25.40;;;;;;5032360;28;20403;-73
2022/03/21 08:35:37;;;;;;;44.47;25.10;;;10.40;23.70;;;;;;5031528;28;20228;-72
2022/03/21 08:38:05;;;;;;;55.80;24.93;;;10.10;23.90;;;;;;5030099;28;20427;-73
2022/03/21 08:40:30;;;;;;;50.13;26.23;;;10.10;24.60;;;;;;5017564;28;20499;-75
2022/03/21 08:42:56;;;;;;;48.87;26.03;;;10.00;24.90;;;;;;5012458;28;20412;-78
2022/03/21 08:45:22;;;;;;;45.23;24.53;;;10.20;23.40;;;;;;5011921;28;20682;-76
2022/03/21 08:47:52;;;;;;;40.90;24.63;;;10.40;23.00;;;;;;5011915;28;20428;-76
2022/03/21 08:50:18;;;;;;;43.13;25.60;;;10.40;23.30;;;;;;5012726;28;20423;-79
2022/03/21 08:52:44;;;;;;;49.43;25.57;;;10.50;23.30;;;;;;5011677;28;20539;-81
2022/03/21 08:55:10;;;;;;;42.07;24.27;;;11.10;22.70;;;;;;5011835;28;20550;-79
2022/03/21 08:57:35;;;;;;;43.90;25.03;;;10.90;22.60;;;;;;5009968;28;20196;-79
2022/03/21 09:00:04;;;;;;;42.50;24.83;;;10.60;23.20;;;;;;5012393;28;20419;-79
2022/03/21 09:02:31;;;;;;;43.97;25.70;;;10.90;23.20;;;;;;5010916;28;20192;-76
2022/03/21 09:04:58;;;;;;;45.37;26.67;;;11.80;22.30;;;;;;5010950;28;20448;-76
2022/03/21 09:07:24;;;;;;;45.90;25.20;;;11.30;22.40;;;;;;5011636;28;20473;-75
2022/03/21 09:09:49;;;;;;;46.93;26.77;;;10.90;23.20;;;;;;5011153;28;20470;-76
2022/03/21 09:12:15;;;;;;;42.80;24.83;;;10.90;23.50;;;;;;5011932;28;20423;-75
2022/03/21 09:14:41;;;;;;;47.77;25.60;;;11.50;22.20;;;;;;5011595;28;20235;-69
2022/03/21 09:17:07;;;;;;;42.90;24.83;;;11.40;22.40;;;;;;5007057;28;20235;-77
2022/03/21 09:19:33;;;;;;;42.37;24.43;;;11.00;23.30;;;;;;5011025;28;20424;-71
2022/03/21 09:21:59;;;;;;;44.03;25.40;;;11.30;22.50;;;;;;5014156;28;20898;-71
2022/03/21 09:24:25;;;;;;;40.40;24.63;;;12.10;21.10;;;;;;5030690;28;20634;-71
2022/03/21 09:26:51;;;;;;;46.03;23.37;;;12.00;20.60;;;;;;5030282;28;20463;-73
2022/03/21 09:29:17;;;;;;;50.50;25.07;;;12.90;19.90;;;;;;5031288;28;20180;-72
2022/03/21 09:31:43;;;;;;;54.07;26.73;;;12.80;19.40;;;;;;5022848;28;20269;-71
2022/03/21 09:34:13;;;;;;;44.63;26.23;;;13.20;20.30;;;;;;5011343;28;20511;-71
2022/03/21 09:36:39;;;;;;;49.17;25.80;;;12.80;20.00;;;;;;5011623;28;20205;-71
2022/03/21 09:39:06;;;;;;;47.73;24.80;;;12.60;20.70;;;;;;5026840;28;20460;-72
2022/03/21 09:41:32;;;;;;;44.57;26.30;;;12.70;20.80;;;;;;5020752;28;20462;-71
2022/03/21 09:44:07;;;;;;;48.50;25.73;;;13.00;19.70;;;;;;5014801;28;20430;-71
2022/03/21 09:46:33;;;;;;;42.83;26.10;;;12.80;20.90;;;;;;4998953;28;20512;-71
2022/03/21 09:48:59;;;;;;;45.60;26.80;;;13.70;19.80;;;;;;5011113;28;20422;-73
2022/03/21 09:51:29;;;;;;;48.20;26.23;;;13.40;19.50;;;;;;5011537;28;20499;-71
2022/03/21 09:53:57;;;;;;;110.57;27.77;;;13.40;19.50;;;;;;5011622;28;20267;-71
2022/03/21 09:56:23;;;;;;;42.80;25.40;;;13.50;18.60;;;;;;5013087;28;20435;-71
2022/03/21 09:58:49;;;;;;;41.17;24.87;;;13.50;19.10;;;;;;5014984;28;20422;-75
2022/03/21 10:01:16;;;;;;;48.30;24.83;;;13.30;18.90;;;;;;5015385;28;20971;-71
2022/03/21 10:03:43;;;;;;;42.33;25.37;;;13.40;18.50;;;;;;5015688;28;20201;-73
2022/03/21 10:06:33;;;;;;;50.83;25.40;;;13.80;18.20;;;;;;5015151;28;20463;-74
2022/03/21 10:09:16;;;;;;;44.03;25.87;;;14.00;17.90;;;;;;5010123;28;20427;-75
2022/03/21 10:11:55;;;;;;;42.97;26.07;;;15.00;16.80;;;;;;5034971;28;20468;-73
2022/03/21 10:14:22;;;;;;;46.73;27.27;;;14.90;16.90;;;;;;5033219;28;20433;-73
2022/03/21 10:16:57;;;;;;;47.50;26.27;;;16.00;15.60;;;;;;5016295;28;21061;-72
2022/03/21 10:19:24;;;;;;;43.97;24.97;;;16.90;14.50;;;;;;5014984;28;20487;-72
2022/03/21 10:22:11;;;;;;;49.63;26.10;;;17.00;14.50;;;;;;5014873;28;20424;-73
2022/03/21 10:24:49;;;;;;;42.93;24.63;;;17.20;14.90;;;;;;5015646;28;20416;-71
2022/03/21 10:27:51;;;;;;;39.87;25.23;;;16.20;15.60;;;;;;5013063;28;20460;-72
2022/03/21 10:30:23;;;;;;;37.23;23.47;;;16.30;15.40;;;;;;4970608;28;21028;-72
2022/03/21 10:32:56;;;;;;;44.63;26.20;;;16.60;17.10;;;;;;4971152;28;20538;-71
2022/03/21 10:35:26;;;;;;;46.27;26.30;;;16.30;15.70;;;;;;4963354;28;20471;-71
2022/03/21 10:37:58;;;;;;;42.20;24.97;;;19.20;16.80;;;;;;4968053;28;20438;-71
2022/03/21 10:40:43;;;;;;;40.70;25.57;;;18.10;13.90;;;;;;4963222;28;20437;-73
2022/03/21 10:43:10;;;;;;;38.17;25.27;;;17.30;14.30;;;;;;4961112;28;20437;-73
2022/03/21 10:45:44;;;;;;;45.07;26.30;;;16.30;15.40;;;;;;4971917;28;20519;-72
2022/03/21 10:48:14;;;;;;;40.90;25.20;;;16.30;15.60;;;;;;4971722;28;20811;-71
2022/03/21 10:50:46;;;;;;;41.50;24.10;;;16.50;15.00;;;;;;4973129;28;20416;-72
2022/03/21 10:53:23;;;;;;;39.50;23.77;;;15.90;15.60;;;;;;4968193;28;20532;-71
2022/03/21 10:55:58;;;;;;;41.07;24.50;;;15.30;16.30;;;;;;4954021;29;20451;-71
2022/03/21 10:58:37;;;;;;;42.70;24.57;;;15.80;16.40;;;;;;4954482;28;20441;-71
2022/03/21 11:01:14;;;;;;;42.27;25.23;;;15.80;15.30;;;;;;4965795;28;20455;-73
2022/03/21 11:03:41;;;;;;;40.93;25.30;;;16.80;15.30;;;;;;4981475;28;20466;-72
2022/03/21 11:06:11;;;;;;;45.03;24.90;;;18.00;15.30;;;;;;5013395;28;20471;-72
2022/03/21 11:08:37;;;;;;;41.37;25.57;;;19.20;14.70;;;;;;5013358;28;20506;-70
2022/03/21 11:11:04;;;;;;;70.83;24.63;;;19.80;12.00;;;;;;5013685;28;20975;-71
2022/03/21 11:13:32;;;;;;;35.10;23.47;;;19.60;12.00;;;;;;5014115;28;20503;-72
2022/03/21 11:15:58;;;;;;;43.60;23.83;;;20.10;12.90;;;;;;5019801;28;20444;-75
2022/03/21 11:18:26;;;;;;;44.97;24.57;;;20.70;11.70;;;;;;5012920;28;20478;-72
2022/03/21 11:20:52;;;;;;;45.10;24.03;;;19.70;11.40;;;;;;5013745;28;20499;-73
2022/03/21 11:23:21;;;;;;;39.10;24.33;;;20.40;12.50;;;;;;5013750;28;20403;-72
2022/03/21 11:26:03;;;;;;;34.80;23.87;;;21.40;11.60;;;;;;5022987;28;20481;-72
2022/03/21 11:28:41;;;;;;;35.17;23.47;;;21.10;10.00;;;;;;4993448;28;20423;-72
2022/03/21 11:31:13;;;;;;;36.17;23.77;;;20.20;12.80;;;;;;4994036;28;20960;-72
2022/03/21 11:33:50;;;;;;;35.77;23.30;;;20.50;11.70;;;;;;4993966;28;20417;-72
2022/03/21 11:36:16;;;;;;;35.13;23.17;;;20.60;11.10;;;;;;5005678;28;20464;-72
2022/03/21 11:38:47;;;;;;;40.13;26.10;;;21.50;11.20;;;;;;5005386;28;20437;-74
2022/03/21 11:41:22;;;;;;;35.93;23.40;;;21.40;10.50;;;;;;4993544;28;20529;-72
2022/03/21 11:44:06;;;;;;;36.90;24.53;;;23.10;11.40;;;;;;4993913;28;20408;-73
2022/03/21 11:46:37;;;;;;;35.60;23.17;;;24.10;9.10;;;;;;5003615;28;20970;-72
2022/03/21 11:49:22;;;;;;;32.40;22.13;;;25.30;8.90;;;;;;5012217;28;20510;-73
2022/03/21 11:51:58;;;;;;;29.27;21.60;;;24.80;8.60;;;;;;5023466;28;20990;-72
2022/03/21 11:54:29;;;;;;;29.80;21.43;;;26.00;7.50;;;;;;5026125;28;20423;-72
2022/03/21 11:57:02;;;;;;;30.37;21.70;;;26.00;6.00;;;;;;5018065;28;20439;-72
2022/03/21 11:59:33;;;;;;;30.60;20.03;;;26.40;6.90;;;;;;5027140;28;20432;-72
2022/03/21 12:02:25;;;;;;;34.63;21.77;;;26.30;5.70;;;;;;5010849;28;20435;-72
2022/03/21 12:05:02;;;;;;;39.60;20.23;;;27.20;7.20;;;;;;5011228;28;20506;-74
2022/03/21 12:07:29;;;;;;;30.80;20.50;;;26.80;6.60;;;;;;5012513;28;20905;-73
2022/03/21 12:09:56;;;;;;;36.70;21.17;;;26.50;6.20;;;;;;5014947;28;20917;-74
2022/03/21 12:12:42;;;;;;;32.20;20.47;;;25.40;6.00;;;;;;5013958;28;20848;-71
2022/03/21 12:15:17;;;;;;;30.83;20.37;;;23.70;7.10;;;;;;5016300;28;20447;-72
2022/03/21 12:17:50;;;;;;;34.27;20.20;;;25.00;7.30;;;;;;4992850;28;20806;-72
2022/03/21 12:20:18;;;;;;;35.60;21.20;;;25.50;6.60;;;;;;5026002;28;20437;-72
2022/03/21 12:22:47;;;;;;;30.93;19.13;;;24.60;6.40;;;;;;5032162;28;20411;-74
2022/03/21 12:25:42;;;;;;;29.23;18.17;;;24.80;7.30;;;;;;5030536;28;20438;-72
2022/03/21 12:28:21;;;;;;;27.80;17.90;;;25.40;7.10;;;;;;5012062;28;20416;-72
2022/03/21 12:30:48;;;;;;;40.23;17.53;;;26.40;5.40;;;;;;5012461;28;20419;-73
2022/03/21 12:33:14;;;;;;;28.40;17.50;;;26.00;4.90;;;;;;5012336;28;20805;-73
2022/03/21 12:35:43;;;;;;;35.10;17.50;;;25.90;6.30;;;;;;5019988;28;20438;-74
2022/03/21 12:38:21;;;;;;;31.63;17.10;;;26.30;4.90;;;;;;5014573;28;20599;-73
2022/03/21 12:40:47;;;;;;;31.13;17.80;;;26.70;5.60;;;;;;5021723;28;20466;-72
2022/03/21 12:43:15;;;;;;;31.33;17.67;;;26.60;6.40;;;;;;5032177;28;20928;-73
2022/03/21 12:45:43;;;;;;;32.30;16.83;;;26.30;4.50;;;;;;5022200;28;20225;-72
2022/03/21 12:48:10;;;;;;;29.80;17.27;;;25.60;4.80;;;;;;5011552;28;20909;-72
2022/03/21 12:50:37;;;;;;;32.40;18.10;;;25.10;5.60;;;;;;5012015;28;20407;-72